Rio Rancho, NM (87124)

3:27 AM MST on December 11, 2016 (GMT -0700)
| | Change Station

Elev -9999 ft 0.00 °N, 0.00 °E | Updated 0 second ago

Partly Cloudy
Partly Cloudy
56 °F
Feels Like 56 °F
N
11
Wind Variable Wind from West
Gusts 17 mph

Today
High -- | Low -- °F
--% Chance of Precip.
Yesterday
High -- | Low -- °F
Precip. -- in
Pressure 30.02 in
Visibility 10.0 miles
Clouds Clear
Dew Point 18 °F
Humidity 23%
Rainfall --
Snow Depth Not available.
7:05 AM 4:54 PM
Waxing Gibbous, 90% visible
METAR KAEG 111015Z AUTO 27003KT 10SM CLR M03/M05 A3002 RMK AO2 T10271051
Pressure 30.02 in
Visibility 10.0 miles
Clouds Clear
Dew Point 18 °F
Humidity 23%
Rainfall --
Snow Depth Not available.
7:05 AM 4:54 PM
Waxing Gibbous, 90% visible
METAR KAEG 111015Z AUTO 27003KT 10SM CLR M03/M05 A3002 RMK AO2 T10271051

10-Day Weather Forecast

Almanac

Astronomy

Dec. 11, 2016 Rise Set
Actual Time
Civil Twilight
Nautical Twilight
Astronomical Twilight
Moon
Length of Visible Light
Length of Day
Tomorrow will be .
, % of the Moon is Illuminated

Today's Extremes

State Highs State Lows

Community

WunderPhotos

Upload Photos

1,956,702 photos uploaded!

WunderBlog® & News

Nearby

Air Quality

  Air Quality AQ Index Pollutant
Not available.

Snow Depth

Station Depth Elevation

Earthquake Activity

City Distance Mag. Time & Date
Minimum magnitude displayed is 2.5.

Coastal Water Temperatures

Place Temperature

Stations

Nearby Weather Stations

Station Location Temp. Windchill Dew Point Humidity Wind Precip. Elev Updated Type
                   

Watches & Warnings

There are currently no watches in effect.